CHH946 ZBAD-ZGGG
Flight info
| Callsign | CHH946 |
|---|---|
| Flight time | N/A |
| Altitude | 36100 |
| Route | PEGSO7F PEGSO B215 EKETA B208 SQ W45 IKAVO IKAVO9 |
| Aircraft | A346/H-SDE2E3FGHIJ3J4J5M1RWXY/LB1D1 |
Departure
| Time | 2026-05-04 08:16 |
|---|---|
| Airport | Beijing Daxing International Airport (ZBAD) |
Arrival
| Time | N/A |
|---|---|
| Airport | Guangzhou Baiyun International Airport (ZGGG) |
| Time | Latitude | Longitude | Altitude | Speed | Heading |
|---|---|---|---|---|---|
| 2026-05-04 07:38 | 39.50387 | 116.41128 | 116 ft | 0 kts | 5° |
| 2026-05-04 08:02 | 39.50345 | 116.41122 | 112 ft | 4 kts | 6° |
| 2026-05-04 08:02 | 39.50324 | 116.41120 | 113 ft | 4 kts | 356° |
| 2026-05-04 08:02 | 39.50311 | 116.41124 | 112 ft | 4 kts | 315° |
| 2026-05-04 08:03 | 39.50303 | 116.41151 | 112 ft | 4 kts | 274° |
| 2026-05-04 08:03 | 39.50303 | 116.41180 | 113 ft | 2 kts | 265° |
| 2026-05-04 08:03 | 39.50304 | 116.41193 | 112 ft | 0 kts | 263° |
| 2026-05-04 08:06 | 39.50304 | 116.41191 | 112 ft | 1 kts | 263° |
| 2026-05-04 08:08 | 39.50070 | 116.40772 | 113 ft | 1 kts | 263° |
| 2026-05-04 08:08 | 39.50065 | 116.40721 | 114 ft | 15 kts | 262° |
| 2026-05-04 08:10 | 39.50784 | 116.39998 | 114 ft | 28 kts | 352° |
| 2026-05-04 08:11 | 39.50949 | 116.39970 | 112 ft | 29 kts | 352° |
| 2026-05-04 08:11 | 39.51415 | 116.39898 | 113 ft | 28 kts | 353° |
| 2026-05-04 08:11 | 39.51598 | 116.39868 | 115 ft | 27 kts | 353° |
| 2026-05-04 08:12 | 39.51728 | 116.39848 | 114 ft | 14 kts | 353° |
| 2026-05-04 08:12 | 39.51791 | 116.39789 | 113 ft | 10 kts | 281° |
| 2026-05-04 08:12 | 39.51792 | 116.39760 | 115 ft | 0 kts | 265° |
| 2026-05-04 08:13 | 39.51792 | 116.39759 | 115 ft | 2 kts | 265° |
| 2026-05-04 08:14 | 39.51785 | 116.39677 | 114 ft | 14 kts | 262° |
| 2026-05-04 08:14 | 39.51706 | 116.39628 | 115 ft | 13 kts | 179° |
| 2026-05-04 08:14 | 39.51642 | 116.39638 | 115 ft | 0 kts | 172° |
| 2026-05-04 08:16 | 39.46453 | 116.40446 | 1345 ft | 197 kts | 175° |
| 2026-05-04 08:16 | 39.46083 | 116.40504 | 1604 ft | 195 kts | 176° |
| 2026-05-04 08:16 | 39.43756 | 116.40852 | 2710 ft | 204 kts | 177° |
| 2026-05-04 08:17 | 39.42522 | 116.41027 | 2996 ft | 219 kts | 176° |
| 2026-05-04 08:17 | 39.40816 | 116.41282 | 3427 ft | 238 kts | 175° |
| 2026-05-04 08:17 | 39.39764 | 116.41448 | 3699 ft | 248 kts | 175° |
| 2026-05-04 08:17 | 39.37212 | 116.41859 | 4700 ft | 258 kts | 176° |
| 2026-05-04 08:19 | 39.29243 | 116.30831 | 9986 ft | 281 kts | 245° |
| 2026-05-04 08:19 | 39.28301 | 116.28606 | 10672 ft | 290 kts | 245° |
| 2026-05-04 08:20 | 39.27257 | 116.26136 | 11170 ft | 308 kts | 245° |
| 2026-05-04 08:20 | 39.26234 | 116.23727 | 11564 ft | 326 kts | 245° |
| 2026-05-04 08:20 | 39.25035 | 116.20919 | 12035 ft | 346 kts | 245° |
| 2026-05-04 08:20 | 39.23874 | 116.18209 | 12413 ft | 364 kts | 245° |
| 2026-05-04 08:21 | 39.22625 | 116.15298 | 12842 ft | 380 kts | 244° |
| 2026-05-04 08:21 | 39.21331 | 116.12291 | 13577 ft | 386 kts | 244° |
| 2026-05-04 08:21 | 39.20021 | 116.09246 | 14348 ft | 390 kts | 244° |
| 2026-05-04 08:21 | 39.18689 | 116.06148 | 15088 ft | 395 kts | 244° |
| 2026-05-04 08:22 | 39.17347 | 116.03027 | 15823 ft | 399 kts | 244° |
| 2026-05-04 08:22 | 39.15944 | 115.99769 | 16589 ft | 404 kts | 244° |
| 2026-05-04 08:24 | 39.00334 | 115.82465 | 19478 ft | 431 kts | 220° |
| 2026-05-04 08:24 | 38.97989 | 115.80084 | 19484 ft | 430 kts | 220° |
| 2026-05-04 08:24 | 38.95425 | 115.77467 | 19486 ft | 430 kts | 220° |
| 2026-05-04 08:24 | 38.93009 | 115.74995 | 19483 ft | 430 kts | 221° |
| 2026-05-04 08:25 | 38.90741 | 115.72673 | 19487 ft | 430 kts | 221° |
| 2026-05-04 08:25 | 38.88461 | 115.70337 | 19488 ft | 430 kts | 220° |
| 2026-05-04 08:25 | 38.85960 | 115.67775 | 19572 ft | 436 kts | 220° |
| 2026-05-04 08:25 | 38.83640 | 115.65399 | 20182 ft | 439 kts | 221° |
| 2026-05-04 08:26 | 38.81298 | 115.63007 | 20952 ft | 438 kts | 221° |
| 2026-05-04 08:27 | 38.64650 | 115.46045 | 24806 ft | 465 kts | 221° |
| 2026-05-04 08:28 | 38.62222 | 115.43575 | 25287 ft | 468 kts | 221° |
| 2026-05-04 08:28 | 38.59533 | 115.40840 | 25798 ft | 472 kts | 221° |
| 2026-05-04 08:28 | 38.56984 | 115.38251 | 26259 ft | 475 kts | 221° |
| 2026-05-04 08:28 | 38.54428 | 115.35659 | 26749 ft | 479 kts | 221° |
| 2026-05-04 08:29 | 38.51675 | 115.32871 | 27213 ft | 483 kts | 221° |
| 2026-05-04 08:29 | 38.48898 | 115.30066 | 27690 ft | 487 kts | 221° |
| 2026-05-04 08:29 | 38.45916 | 115.27057 | 28222 ft | 491 kts | 221° |
| 2026-05-04 08:31 | 38.27616 | 115.08654 | 32499 ft | 480 kts | 222° |
| 2026-05-04 08:33 | 38.10189 | 114.91231 | 35589 ft | 477 kts | 223° |
| 2026-05-04 08:33 | 38.06597 | 114.87654 | 35959 ft | 480 kts | 223° |
| 2026-05-04 08:35 | 37.86328 | 114.67561 | 35979 ft | 480 kts | 222° |
| 2026-05-04 08:35 | 37.81090 | 114.62393 | 35980 ft | 480 kts | 222° |
| 2026-05-04 08:37 | 37.62589 | 114.44212 | 35988 ft | 479 kts | 222° |
| 2026-05-04 08:38 | 37.57233 | 114.38971 | 35989 ft | 479 kts | 222° |
| 2026-05-04 08:38 | 37.51798 | 114.33662 | 35991 ft | 478 kts | 222° |
| 2026-05-04 08:40 | 37.30726 | 114.13175 | 36014 ft | 478 kts | 221° |
| 2026-05-04 08:41 | 37.25452 | 114.08071 | 36008 ft | 478 kts | 221° |
| 2026-05-04 08:41 | 37.20218 | 114.03015 | 36012 ft | 477 kts | 221° |
| 2026-05-04 08:42 | 37.14907 | 113.97894 | 36031 ft | 477 kts | 221° |
| 2026-05-04 08:42 | 37.09543 | 113.92731 | 36032 ft | 477 kts | 221° |
| 2026-05-04 08:43 | 37.04351 | 113.87743 | 36021 ft | 476 kts | 221° |
| 2026-05-04 08:43 | 36.98959 | 113.82570 | 36033 ft | 475 kts | 221° |
| 2026-05-04 08:44 | 36.93805 | 113.77636 | 36028 ft | 475 kts | 221° |
| 2026-05-04 08:46 | 36.73604 | 113.58377 | 36033 ft | 474 kts | 221° |
| 2026-05-04 08:46 | 36.67433 | 113.52521 | 36024 ft | 473 kts | 221° |
| 2026-05-04 08:47 | 36.62159 | 113.47525 | 36035 ft | 473 kts | 221° |
| 2026-05-04 08:47 | 36.56870 | 113.42525 | 36028 ft | 473 kts | 221° |
| 2026-05-04 08:48 | 36.51631 | 113.37578 | 36043 ft | 473 kts | 221° |
| 2026-05-04 08:48 | 36.46382 | 113.32634 | 36049 ft | 473 kts | 221° |
| 2026-05-04 08:49 | 36.41933 | 113.28448 | 36052 ft | 473 kts | 221° |
| 2026-05-04 08:50 | 36.22882 | 113.11553 | 36061 ft | 476 kts | 212° |
| 2026-05-04 08:51 | 36.17177 | 113.08091 | 36051 ft | 479 kts | 206° |
| 2026-05-04 08:51 | 36.10942 | 113.04852 | 36045 ft | 479 kts | 206° |
| 2026-05-04 08:52 | 36.04558 | 113.01535 | 36061 ft | 478 kts | 206° |
| 2026-05-04 08:52 | 35.98422 | 112.98344 | 36068 ft | 478 kts | 206° |
| 2026-05-04 08:54 | 35.73879 | 112.85611 | 36072 ft | 478 kts | 206° |
| 2026-05-04 08:55 | 35.67748 | 112.82416 | 36064 ft | 478 kts | 206° |
| 2026-05-04 08:55 | 35.61706 | 112.79276 | 36070 ft | 478 kts | 206° |
| 2026-05-04 09:01 | 34.96575 | 112.47703 | 36028 ft | 481 kts | 200° |
| 2026-05-04 09:01 | 34.90152 | 112.45350 | 36023 ft | 481 kts | 200° |
| 2026-05-04 09:02 | 34.83720 | 112.43012 | 36007 ft | 483 kts | 199° |
| 2026-05-04 09:02 | 34.77137 | 112.41237 | 36017 ft | 487 kts | 193° |
| 2026-05-04 09:03 | 34.70374 | 112.40354 | 36020 ft | 490 kts | 186° |
| 2026-05-04 09:03 | 34.63524 | 112.40402 | 36023 ft | 494 kts | 179° |
| 2026-05-04 09:04 | 34.58109 | 112.40878 | 36022 ft | 494 kts | 179° |
| 2026-05-04 09:04 | 34.49775 | 112.41611 | 36019 ft | 494 kts | 179° |
| 2026-05-04 09:05 | 34.43989 | 112.42109 | 36023 ft | 494 kts | 179° |
| 2026-05-04 09:05 | 34.37135 | 112.42695 | 36020 ft | 494 kts | 179° |
| 2026-05-04 09:06 | 34.30272 | 112.43280 | 36033 ft | 494 kts | 179° |
| 2026-05-04 09:08 | 34.02789 | 112.45614 | 36050 ft | 493 kts | 179° |
| 2026-05-04 09:08 | 33.95954 | 112.46191 | 36042 ft | 492 kts | 180° |
| 2026-05-04 09:09 | 33.89114 | 112.46767 | 36045 ft | 492 kts | 180° |
| 2026-05-04 09:09 | 33.82177 | 112.47354 | 36050 ft | 493 kts | 180° |
| 2026-05-04 09:10 | 33.75259 | 112.47933 | 36052 ft | 493 kts | 180° |
| 2026-05-04 09:10 | 33.68421 | 112.48506 | 36052 ft | 493 kts | 180° |
| 2026-05-04 09:11 | 33.61528 | 112.49089 | 36048 ft | 493 kts | 180° |
| 2026-05-04 09:11 | 33.54694 | 112.49674 | 36053 ft | 492 kts | 180° |
| 2026-05-04 09:12 | 33.47805 | 112.50260 | 36052 ft | 492 kts | 180° |
| 2026-05-04 09:14 | 33.20331 | 112.52587 | 36048 ft | 492 kts | 180° |
| 2026-05-04 09:14 | 33.13422 | 112.53170 | 36044 ft | 492 kts | 180° |
| 2026-05-04 09:15 | 33.06527 | 112.53754 | 36042 ft | 490 kts | 181° |
| 2026-05-04 09:15 | 32.99626 | 112.54237 | 36045 ft | 487 kts | 184° |
| 2026-05-04 09:17 | 32.70485 | 112.47978 | 36043 ft | 473 kts | 201° |
| 2026-05-04 09:18 | 32.65666 | 112.46399 | 36045 ft | 473 kts | 201° |
| 2026-05-04 09:18 | 32.60679 | 112.44774 | 36035 ft | 472 kts | 201° |
| 2026-05-04 09:19 | 32.51879 | 112.41901 | 36042 ft | 473 kts | 201° |
| 2026-05-04 09:19 | 32.45117 | 112.39700 | 36048 ft | 473 kts | 201° |
| 2026-05-04 09:20 | 32.39874 | 112.37997 | 36030 ft | 472 kts | 201° |
| 2026-05-04 09:20 | 32.34735 | 112.36334 | 36048 ft | 470 kts | 201° |
| 2026-05-04 09:21 | 32.27091 | 112.33852 | 36049 ft | 470 kts | 201° |
| 2026-05-04 09:21 | 32.19862 | 112.31511 | 36046 ft | 470 kts | 201° |
| 2026-05-04 09:22 | 32.13984 | 112.29616 | 36035 ft | 469 kts | 202° |
| 2026-05-04 09:22 | 32.07464 | 112.27609 | 36047 ft | 470 kts | 199° |
| 2026-05-04 09:23 | 32.02415 | 112.26497 | 36051 ft | 473 kts | 196° |
| 2026-05-04 09:23 | 31.95339 | 112.25061 | 36052 ft | 473 kts | 196° |
| 2026-05-04 09:25 | 31.69054 | 112.19741 | 36051 ft | 473 kts | 196° |
| 2026-05-04 09:26 | 31.62557 | 112.18434 | 36048 ft | 472 kts | 197° |
| 2026-05-04 09:26 | 31.56102 | 112.17132 | 36053 ft | 472 kts | 197° |
| 2026-05-04 09:27 | 31.49633 | 112.15829 | 36057 ft | 472 kts | 197° |
| 2026-05-04 09:27 | 31.43165 | 112.14530 | 36038 ft | 472 kts | 197° |
| 2026-05-04 09:28 | 31.36685 | 112.13061 | 36061 ft | 469 kts | 199° |
| 2026-05-04 09:28 | 31.30305 | 112.11490 | 36071 ft | 470 kts | 199° |
| 2026-05-04 09:29 | 31.23950 | 112.09933 | 36071 ft | 470 kts | 199° |
| 2026-05-04 09:29 | 31.17497 | 112.08357 | 36038 ft | 470 kts | 199° |
| 2026-05-04 09:30 | 31.11108 | 112.06802 | 36064 ft | 469 kts | 199° |
| 2026-05-04 09:30 | 31.04672 | 112.05228 | 36071 ft | 469 kts | 199° |
| 2026-05-04 09:31 | 30.98316 | 112.03677 | 36073 ft | 469 kts | 199° |
| 2026-05-04 09:31 | 30.91921 | 112.02122 | 36056 ft | 469 kts | 200° |
| 2026-05-04 09:32 | 30.85541 | 112.00573 | 36075 ft | 468 kts | 200° |
| 2026-05-04 09:34 | 30.60003 | 111.94398 | 36069 ft | 467 kts | 200° |
| 2026-05-04 09:34 | 30.53641 | 111.92868 | 36074 ft | 467 kts | 200° |
| 2026-05-04 09:35 | 30.47290 | 111.91344 | 36076 ft | 467 kts | 200° |
| 2026-05-04 09:35 | 30.40883 | 111.89811 | 36056 ft | 466 kts | 200° |
| 2026-05-04 09:37 | 30.15289 | 111.83704 | 36058 ft | 464 kts | 200° |
| 2026-05-04 09:38 | 30.08916 | 111.82189 | 36074 ft | 464 kts | 201° |
| 2026-05-04 09:38 | 30.03625 | 111.80930 | 36077 ft | 463 kts | 201° |
| 2026-05-04 09:39 | 29.97292 | 111.79425 | 36082 ft | 464 kts | 200° |
| 2026-05-04 09:39 | 29.90913 | 111.77912 | 36042 ft | 466 kts | 201° |
| 2026-05-04 09:40 | 29.84519 | 111.76403 | 36074 ft | 465 kts | 201° |
| 2026-05-04 09:40 | 29.78134 | 111.74893 | 36078 ft | 465 kts | 201° |
| 2026-05-04 09:42 | 29.52679 | 111.68897 | 36079 ft | 465 kts | 201° |
| 2026-05-04 09:43 | 29.46315 | 111.67402 | 36078 ft | 465 kts | 201° |
| 2026-05-04 09:43 | 29.39924 | 111.65904 | 36077 ft | 465 kts | 200° |
| 2026-05-04 09:44 | 29.33381 | 111.64805 | 36078 ft | 473 kts | 195° |
| 2026-05-04 09:46 | 29.06596 | 111.63311 | 36077 ft | 477 kts | 193° |
| 2026-05-04 09:46 | 28.99900 | 111.62956 | 36082 ft | 477 kts | 193° |
| 2026-05-04 09:47 | 28.93144 | 111.62599 | 36087 ft | 477 kts | 193° |
| 2026-05-04 09:49 | 28.67711 | 111.60303 | 36089 ft | 473 kts | 196° |
| 2026-05-04 09:51 | 28.44709 | 111.57817 | 36091 ft | 473 kts | 196° |
| 2026-05-04 09:51 | 28.38110 | 111.57112 | 36098 ft | 473 kts | 196° |
| 2026-05-04 09:52 | 28.31472 | 111.56409 | 36080 ft | 473 kts | 196° |
| 2026-05-04 09:52 | 28.24874 | 111.55711 | 36095 ft | 474 kts | 196° |
| 2026-05-04 09:53 | 28.18267 | 111.55013 | 36106 ft | 474 kts | 196° |
| 2026-05-04 09:53 | 28.11702 | 111.54320 | 36108 ft | 473 kts | 196° |
| 2026-05-04 09:54 | 28.05059 | 111.53619 | 36072 ft | 473 kts | 196° |
| 2026-05-04 09:54 | 27.98459 | 111.52923 | 36107 ft | 474 kts | 196° |
| 2026-05-04 09:55 | 27.91839 | 111.52228 | 36118 ft | 474 kts | 196° |
| 2026-05-04 09:55 | 27.85192 | 111.51532 | 36113 ft | 474 kts | 196° |
| 2026-05-04 09:56 | 27.78625 | 111.50843 | 36066 ft | 474 kts | 196° |
| 2026-05-04 09:56 | 27.71830 | 111.50131 | 36109 ft | 474 kts | 195° |
| 2026-05-04 09:57 | 27.66336 | 111.49558 | 36113 ft | 474 kts | 195° |
| 2026-05-04 09:57 | 27.59767 | 111.48873 | 36112 ft | 474 kts | 195° |
| 2026-05-04 09:58 | 27.53110 | 111.48180 | 36119 ft | 474 kts | 195° |
| 2026-05-04 09:58 | 27.46463 | 111.47484 | 36116 ft | 473 kts | 195° |
| 2026-05-04 10:00 | 27.19852 | 111.44725 | 36109 ft | 472 kts | 195° |